createdAt,value
2023-04-06T00:00:45.696Z,83.53
2023-04-06T00:01:45.738Z,83.63
2023-04-06T00:02:45.754Z,84.01
2023-04-06T00:03:46.254Z,83.53
2023-04-06T00:04:45.843Z,83.63
2023-04-06T00:05:45.840Z,83.25
2023-04-06T00:06:45.861Z,84.01
2023-04-06T00:07:45.885Z,84.11
2023-04-06T00:08:45.923Z,84.11
2023-04-06T00:09:45.934Z,83.92
2023-04-06T00:10:46.275Z,84.01
2023-04-06T00:11:46.000Z,83.92
2023-04-06T00:12:46.036Z,84.11
2023-04-06T00:13:46.121Z,84.01
2023-04-06T00:14:46.132Z,83.92
2023-04-06T00:15:46.155Z,83.92
2023-04-06T00:16:46.239Z,83.83
2023-04-06T00:17:46.516Z,83.73
2023-04-06T00:18:46.249Z,83.63
2023-04-06T00:20:46.293Z,83.73
2023-04-06T00:21:46.292Z,83.73
2023-04-06T00:22:46.311Z,83.92
2023-04-06T00:23:46.341Z,83.83
2023-04-06T00:25:46.407Z,83.92
2023-04-06T00:26:46.436Z,83.92
2023-04-06T00:27:46.459Z,83.92
2023-04-06T00:28:46.534Z,84.01
2023-04-06T00:29:46.517Z,83.92
2023-04-06T00:30:46.546Z,83.83
2023-04-06T00:32:46.927Z,84.30
2023-04-06T00:33:46.627Z,84.40
2023-04-06T00:34:46.663Z,84.11
2023-04-06T00:35:46.734Z,84.30
2023-04-06T00:36:46.729Z,84.11
2023-04-06T00:37:46.738Z,84.01
2023-04-06T00:38:46.771Z,83.92
2023-04-06T00:39:47.096Z,84.21
2023-04-06T00:40:46.858Z,83.97
2023-04-06T00:41:46.859Z,84.11
2023-04-06T00:42:46.887Z,83.97
2023-04-06T00:43:46.921Z,83.92
2023-04-06T00:44:47.053Z,83.97
2023-04-06T00:45:46.996Z,84.50
2023-04-06T00:46:47.297Z,83.87
2023-04-06T00:47:47.053Z,84.17
2023-04-06T00:48:47.063Z,84.45
2023-04-06T00:49:47.080Z,84.30
2023-04-06T00:50:47.118Z,84.17
2023-04-06T00:51:47.147Z,84.01
2023-04-06T00:52:47.186Z,84.21
2023-04-06T00:53:47.510Z,84.26
2023-04-06T00:54:47.217Z,84.45
2023-04-06T00:55:47.261Z,84.30
2023-04-06T00:56:47.292Z,84.36
2023-04-06T00:57:47.311Z,84.30
2023-04-06T00:58:47.345Z,84.45
2023-04-06T00:59:47.376Z,84.17
2023-04-06T01:00:47.715Z,84.74
2023-04-06T01:01:48.705Z,84.36
2023-04-06T01:02:47.501Z,84.36
2023-04-06T01:03:47.494Z,84.45
2023-04-06T01:04:47.525Z,84.26
2023-04-06T01:06:47.873Z,84.17
2023-04-06T01:07:47.601Z,84.26
2023-04-06T01:08:47.658Z,84.36
2023-04-06T01:09:47.655Z,84.26
2023-04-06T01:10:47.704Z,84.36
2023-04-06T01:11:47.756Z,84.45
2023-04-06T01:12:48.045Z,84.45
2023-04-06T01:13:47.785Z,84.36
2023-04-06T01:14:47.800Z,83.97
2023-04-06T01:15:47.853Z,84.45
2023-04-06T01:16:47.860Z,84.45
2023-04-06T01:17:47.908Z,84.55
2023-04-06T01:18:48.266Z,84.36
2023-04-06T01:19:47.935Z,84.45
2023-04-06T01:20:48.031Z,84.26
2023-04-06T01:21:48.010Z,84.74
2023-04-06T01:22:48.025Z,85.03
2023-04-06T01:23:48.062Z,85.13
2023-04-06T01:24:48.157Z,84.74
2023-04-06T01:25:48.439Z,85.03
2023-04-06T01:26:48.316Z,85.13
2023-04-06T01:27:48.227Z,85.13
2023-04-06T01:28:48.343Z,85.13
2023-04-06T01:29:48.227Z,84.74
2023-04-06T01:30:48.247Z,84.74
2023-04-06T01:31:48.300Z,85.03
2023-04-06T01:32:48.669Z,84.74
2023-04-06T01:33:48.334Z,84.94
2023-04-06T01:34:48.373Z,84.94
2023-04-06T01:35:48.435Z,84.84
2023-04-06T01:36:48.456Z,84.74
2023-04-06T01:37:48.457Z,84.55
2023-04-06T01:38:48.493Z,84.84
2023-04-06T01:39:48.803Z,84.84
2023-04-06T01:40:48.554Z,84.74
2023-04-06T01:41:48.566Z,84.55
2023-04-06T01:42:48.600Z,84.84
2023-04-06T01:43:48.817Z,84.84
2023-04-06T01:44:48.666Z,84.74
2023-04-06T01:45:48.670Z,84.74
2023-04-06T01:46:49.097Z,84.84
2023-04-06T01:47:48.738Z,84.45
2023-04-06T01:48:48.764Z,84.84
2023-04-06T01:49:48.823Z,84.94
2023-04-06T01:50:48.819Z,84.55
2023-04-06T01:51:48.858Z,84.74
2023-04-06T01:52:48.889Z,84.84
2023-04-06T01:53:49.249Z,84.74
2023-04-06T01:54:48.956Z,84.84
2023-04-06T01:55:48.971Z,84.84
2023-04-06T01:56:49.050Z,84.84
2023-04-06T01:57:49.013Z,84.94
2023-04-06T01:58:49.089Z,84.74
2023-04-06T01:59:49.065Z,84.45
2023-04-06T02:00:49.449Z,84.74
2023-04-06T02:02:49.148Z,84.74
2023-04-06T02:03:49.180Z,84.84
2023-04-06T02:04:49.241Z,84.84
2023-04-06T02:05:49.238Z,84.94
2023-04-06T02:06:49.286Z,84.74
2023-04-06T02:07:49.599Z,84.94
2023-04-06T02:10:49.407Z,84.84
2023-04-06T02:11:49.410Z,84.74
2023-04-06T02:12:49.462Z,84.74
2023-04-06T02:13:49.492Z,84.84
2023-04-06T02:14:49.896Z,84.64
2023-04-06T02:15:49.530Z,84.55
2023-04-06T02:16:49.575Z,84.64
2023-04-06T02:17:49.782Z,84.84
2023-04-06T02:19:49.644Z,84.84
2023-04-06T02:20:49.664Z,84.74
2023-04-06T02:21:49.994Z,84.80
2023-04-06T02:22:49.727Z,84.74
2023-04-06T02:23:49.782Z,84.74
2023-04-06T02:24:49.899Z,84.84
2023-04-06T02:25:49.817Z,84.80
2023-04-06T02:26:49.831Z,84.89
2023-04-06T02:27:49.859Z,84.80
2023-04-06T02:28:50.222Z,84.84
2023-04-06T02:29:49.923Z,84.80
2023-04-06T02:30:49.943Z,84.84
2023-04-06T02:31:50.034Z,84.89
2023-04-06T02:32:50.032Z,84.64
2023-04-06T02:33:50.031Z,84.89
2023-04-06T02:34:50.060Z,84.89
2023-04-06T02:35:50.425Z,84.70
2023-04-06T02:37:50.147Z,84.80
2023-04-06T02:38:50.178Z,84.99
2023-04-06T02:40:50.242Z,85.08
2023-04-06T02:41:50.267Z,84.80
2023-04-06T02:43:50.359Z,84.80
2023-04-06T02:44:50.366Z,84.51
2023-04-06T02:45:50.465Z,85.18
2023-04-06T02:46:50.391Z,85.37
2023-04-06T02:47:50.451Z,85.37
2023-04-06T02:48:50.452Z,85.37
2023-04-06T02:49:50.787Z,85.28
2023-04-06T02:50:50.506Z,85.28
2023-04-06T02:51:50.552Z,84.70
2023-04-06T02:52:50.570Z,85.37
2023-04-06T02:54:50.643Z,85.47
2023-04-06T02:55:50.653Z,85.18
2023-04-06T02:56:50.971Z,85.37
2023-04-06T02:57:50.712Z,85.18
2023-04-06T02:58:50.843Z,85.28
2023-04-06T02:59:50.767Z,84.70
2023-04-06T03:00:50.807Z,85.28
2023-04-06T03:01:50.888Z,85.37
2023-04-06T03:02:51.216Z,85.18
2023-04-06T03:03:51.046Z,85.08
2023-04-06T03:05:50.933Z,85.18
2023-04-06T03:07:50.985Z,85.37
2023-04-06T03:09:51.048Z,85.08
2023-04-06T03:10:51.072Z,85.08
2023-04-06T03:11:51.109Z,85.37
2023-04-06T03:12:51.121Z,85.18
2023-04-06T03:13:51.159Z,85.18
2023-04-06T03:14:51.502Z,85.37
2023-04-06T03:15:51.245Z,85.08
2023-04-06T03:16:51.267Z,85.28
2023-04-06T03:17:51.343Z,85.08
2023-04-06T03:18:51.293Z,85.08
2023-04-06T03:19:51.333Z,85.37
2023-04-06T03:20:51.364Z,84.99
2023-04-06T03:21:51.387Z,85.18
2023-04-06T03:22:51.412Z,85.85
2023-04-06T03:23:51.442Z,85.75
2023-04-06T03:24:51.477Z,85.18
2023-04-06T03:25:51.484Z,85.57
2023-04-06T03:26:51.534Z,85.66
2023-04-06T03:27:51.848Z,85.66
2023-04-06T03:28:51.564Z,85.18
2023-04-06T03:30:51.641Z,85.66
2023-04-06T03:31:51.657Z,85.85
2023-04-06T03:32:51.733Z,85.66
2023-04-06T03:33:51.765Z,85.75
2023-04-06T03:34:52.040Z,84.99
2023-04-06T03:35:51.781Z,85.37
2023-04-06T03:37:03.110Z,85.75
2023-04-06T03:37:51.824Z,84.99
2023-04-06T03:38:51.845Z,85.37
2023-04-06T03:39:51.889Z,84.70
2023-04-06T03:40:51.927Z,85.47
2023-04-06T03:41:52.243Z,85.66
2023-04-06T03:42:51.968Z,85.57
2023-04-06T03:43:51.988Z,84.70
2023-04-06T03:44:52.015Z,85.18
2023-04-06T03:45:52.052Z,85.75
2023-04-06T03:46:52.245Z,85.37
2023-04-06T03:47:52.105Z,85.75
2023-04-06T03:48:52.469Z,85.57
2023-04-06T03:49:52.158Z,85.75
2023-04-06T03:50:52.191Z,85.47
2023-04-06T03:51:52.223Z,85.75
2023-04-06T03:52:52.237Z,85.47
2023-04-06T03:53:52.301Z,84.70
2023-04-06T03:54:52.336Z,85.28
2023-04-06T03:55:52.344Z,85.08
2023-04-06T03:56:52.498Z,85.47
2023-04-06T03:57:52.421Z,85.28
2023-04-06T03:58:52.647Z,85.18
2023-04-06T03:59:52.441Z,85.28
2023-04-06T04:00:52.490Z,85.28
2023-04-06T04:01:52.809Z,85.08
2023-04-06T04:02:52.590Z,85.08
2023-04-06T04:03:52.632Z,85.28
2023-04-06T04:04:52.627Z,84.99
2023-04-06T04:05:52.605Z,84.89
2023-04-06T04:06:52.650Z,84.99
2023-04-06T04:07:52.678Z,85.18
2023-04-06T04:08:52.685Z,84.99
2023-04-06T04:09:52.714Z,85.08
2023-04-06T04:10:52.743Z,85.18
2023-04-06T04:11:52.769Z,84.99
2023-04-06T04:12:52.815Z,85.18
2023-04-06T04:13:53.137Z,85.18
2023-04-06T04:14:52.858Z,85.08
2023-04-06T04:15:52.927Z,85.14
2023-04-06T04:16:53.197Z,84.99
2023-04-06T04:17:52.965Z,84.99
2023-04-06T04:18:52.965Z,85.18
2023-04-06T04:19:53.500Z,85.14
2023-04-06T04:20:53.040Z,85.04
2023-04-06T04:21:53.048Z,85.18
2023-04-06T04:22:53.113Z,85.04
2023-04-06T04:23:53.132Z,84.89
2023-04-06T04:24:53.157Z,85.18
2023-04-06T04:25:53.203Z,85.04
2023-04-06T04:26:53.509Z,85.24
2023-04-06T04:27:53.222Z,84.99
2023-04-06T04:28:53.251Z,85.08
2023-04-06T04:29:53.282Z,84.95
2023-04-06T04:31:53.424Z,85.04
2023-04-06T04:32:53.473Z,85.24
2023-04-06T04:33:53.694Z,85.28
2023-04-06T04:34:53.433Z,85.14
2023-04-06T04:35:53.504Z,85.24
2023-04-06T04:36:53.499Z,85.04
2023-04-06T04:37:53.510Z,85.08
2023-04-06T04:38:53.544Z,85.24
2023-04-06T04:39:53.579Z,85.04
2023-04-06T04:40:53.896Z,85.24
2023-04-06T04:41:53.621Z,85.24
2023-04-06T04:42:53.640Z,85.24
2023-04-06T04:43:53.674Z,84.95
2023-04-06T04:44:53.887Z,85.04
2023-04-06T04:45:53.827Z,85.04
2023-04-06T04:46:53.954Z,85.04
2023-04-06T04:47:54.140Z,85.14
2023-04-06T04:48:53.821Z,85.24
2023-04-06T04:49:53.852Z,85.04
2023-04-06T04:50:53.870Z,84.95
2023-04-06T04:51:53.912Z,84.99
2023-04-06T04:52:53.945Z,84.85
2023-04-06T04:53:53.953Z,85.24
2023-04-06T04:54:54.298Z,84.95
2023-04-06T04:55:54.016Z,85.04
2023-04-06T04:56:54.048Z,85.04
2023-04-06T04:57:54.073Z,84.85
2023-04-06T04:58:54.151Z,85.24
2023-04-06T04:59:55.436Z,85.24
2023-04-06T05:00:54.196Z,84.85
2023-04-06T05:01:55.652Z,84.95
2023-04-06T05:03:54.308Z,84.95
2023-04-06T05:04:54.256Z,85.04
2023-04-06T05:05:54.311Z,85.04
2023-04-06T05:06:54.333Z,84.85
2023-04-06T05:08:54.715Z,84.95
2023-04-06T05:09:54.420Z,84.95
2023-04-06T05:10:54.441Z,84.95
2023-04-06T05:11:54.476Z,85.04
2023-04-06T05:12:54.484Z,84.75
2023-04-06T05:13:54.523Z,85.14
2023-04-06T05:14:54.579Z,84.85
2023-04-06T05:15:54.953Z,85.04
2023-04-06T05:16:54.598Z,84.85
2023-04-06T05:17:54.676Z,85.04
2023-04-06T05:18:54.658Z,84.95
2023-04-06T05:19:54.690Z,84.75
2023-04-06T05:20:54.738Z,84.85
2023-04-06T05:21:54.742Z,85.04
2023-04-06T05:22:55.076Z,85.04
2023-04-06T05:23:54.829Z,84.75
2023-04-06T05:26:54.902Z,84.75
2023-04-06T05:27:54.905Z,84.85
2023-04-06T05:28:54.941Z,84.75
2023-04-06T05:30:55.360Z,84.95
2023-04-06T05:31:55.029Z,84.95
2023-04-06T05:32:55.124Z,84.95
2023-04-06T05:33:55.080Z,84.75
2023-04-06T05:34:55.101Z,84.75
2023-04-06T05:35:55.139Z,84.85
2023-04-06T05:36:55.152Z,84.75
2023-04-06T05:37:55.492Z,84.95
2023-04-06T05:38:55.223Z,84.66
2023-04-06T05:39:55.232Z,84.85
2023-04-06T05:40:55.276Z,84.66
2023-04-06T05:41:55.296Z,84.85
2023-04-06T05:42:55.449Z,84.85
2023-04-06T05:43:55.340Z,85.04
2023-04-06T05:44:55.691Z,85.04
2023-04-06T05:46:55.450Z,85.08
2023-04-06T05:47:55.534Z,85.24
2023-04-06T05:48:55.490Z,85.24
2023-04-06T05:49:55.514Z,85.14
2023-04-06T05:50:55.565Z,85.04
2023-04-06T05:51:55.883Z,85.24
2023-04-06T05:52:55.594Z,85.37
2023-04-06T05:53:55.623Z,84.85
2023-04-06T05:54:55.641Z,85.04
2023-04-06T05:55:55.676Z,85.18
2023-04-06T05:56:55.716Z,85.08
2023-04-06T05:57:55.729Z,85.24
2023-04-06T05:58:56.140Z,85.08
2023-04-06T05:59:55.784Z,85.24
2023-04-06T06:01:55.884Z,84.66
2023-04-06T06:02:55.955Z,85.37
2023-04-06T06:03:55.891Z,85.18
2023-04-06T06:04:55.938Z,85.18
2023-04-06T06:05:56.255Z,85.18
2023-04-06T06:06:55.992Z,85.47
2023-04-06T06:07:56.058Z,85.37
2023-04-06T06:08:56.037Z,85.04
2023-04-06T06:09:56.607Z,85.18
2023-04-06T06:10:56.093Z,85.18
2023-04-06T06:11:56.110Z,85.28
2023-04-06T06:12:56.146Z,84.99
2023-04-06T06:13:56.179Z,84.99
2023-04-06T06:14:56.467Z,84.89
2023-04-06T06:15:56.246Z,84.80
2023-04-06T06:16:56.346Z,84.80
2023-04-06T06:17:56.337Z,84.89
2023-04-06T06:18:56.305Z,84.89
2023-04-06T06:19:56.417Z,84.22
2023-04-06T06:20:56.363Z,83.93
2023-04-06T06:21:56.396Z,84.22
2023-04-06T06:23:56.757Z,84.51
2023-04-06T06:24:56.497Z,83.84
2023-04-06T06:25:56.510Z,83.84
2023-04-06T06:26:56.531Z,84.03
2023-04-06T06:27:56.567Z,83.45
2023-04-06T06:28:56.594Z,83.54
2023-04-06T06:29:56.631Z,83.36
2023-04-06T06:30:56.789Z,83.36
2023-04-06T06:31:56.843Z,83.26
2023-04-06T06:32:56.739Z,83.64
2023-04-06T06:33:56.757Z,83.26
2023-04-06T06:34:56.764Z,83.16
2023-04-06T06:35:56.827Z,83.07
2023-04-06T06:36:56.810Z,82.87
2023-04-06T06:37:56.851Z,83.16
2023-04-06T06:38:56.880Z,82.97
2023-04-06T06:39:57.030Z,82.78
2023-04-06T06:40:56.931Z,82.59
2023-04-06T06:41:56.964Z,82.78
2023-04-06T06:42:56.999Z,82.87
2023-04-06T06:43:57.067Z,82.68
2023-04-06T06:44:57.089Z,82.59
2023-04-06T06:45:57.118Z,82.49
2023-04-06T06:46:57.120Z,82.78
2023-04-06T06:47:57.135Z,82.40
2023-04-06T06:48:57.461Z,82.59
2023-04-06T06:49:57.198Z,82.40
2023-04-06T06:50:57.230Z,82.20
2023-04-06T06:51:57.241Z,82.10
2023-04-06T06:52:57.266Z,82.10
2023-04-06T06:53:57.305Z,81.92
2023-04-06T06:54:57.913Z,82.01
2023-04-06T06:56:57.375Z,81.76
2023-04-06T06:57:57.414Z,81.38
2023-04-06T06:58:57.476Z,81.63
2023-04-06T06:59:57.480Z,81.53
2023-04-06T07:00:57.822Z,81.38
2023-04-06T07:01:57.521Z,81.09
2023-04-06T07:02:57.672Z,81.57
2023-04-06T07:03:57.632Z,81.96
2023-04-06T07:05:57.657Z,81.57
2023-04-06T07:06:57.958Z,81.57
2023-04-06T07:07:57.683Z,81.09
2023-04-06T07:08:58.014Z,81.09
2023-04-06T07:09:57.751Z,81.19
2023-04-06T07:10:57.774Z,80.90
2023-04-06T07:11:57.802Z,80.99
2023-04-06T07:12:57.826Z,80.90
2023-04-06T07:13:58.169Z,80.99
2023-04-06T07:14:57.911Z,80.42
2023-04-06T07:15:57.998Z,80.90
2023-04-06T07:16:57.989Z,80.99
2023-04-06T07:17:57.975Z,80.90
2023-04-06T07:18:58.019Z,80.90
2023-04-06T07:19:58.131Z,80.80
2023-04-06T07:20:58.048Z,80.80
2023-04-06T07:21:58.087Z,80.71
2023-04-06T07:22:58.184Z,80.90
2023-04-06T07:23:58.144Z,80.61
2023-04-06T07:25:00.061Z,80.71
2023-04-06T07:25:58.218Z,80.42
2023-04-06T07:27:58.249Z,80.42
2023-04-06T07:28:58.299Z,80.42
2023-04-06T07:29:58.325Z,80.32
2023-04-06T07:30:58.334Z,80.13
2023-04-06T07:31:58.430Z,80.22
2023-04-06T07:32:58.741Z,80.32
2023-04-06T07:33:58.422Z,80.22
2023-04-06T07:34:58.473Z,80.42
2023-04-06T07:35:58.530Z,80.42
2023-04-06T07:36:58.531Z,80.22
2023-04-06T07:37:58.548Z,80.04
2023-04-06T07:38:58.553Z,79.94
2023-04-06T07:39:58.900Z,80.13
2023-04-06T07:41:58.668Z,79.65
2023-04-06T07:42:58.677Z,79.60
2023-04-06T07:43:58.712Z,79.69
2023-04-06T07:44:58.751Z,79.75
2023-04-06T07:45:58.845Z,79.60
2023-04-06T07:46:58.796Z,79.75
2023-04-06T07:47:58.840Z,79.65
2023-04-06T07:48:58.856Z,79.69
2023-04-06T07:49:58.874Z,79.84
2023-04-06T07:50:58.916Z,79.75
2023-04-06T07:51:59.248Z,79.98
2023-04-06T07:53:58.987Z,79.40
2023-04-06T07:54:59.018Z,79.50
2023-04-06T07:55:59.063Z,79.21
2023-04-06T07:56:59.087Z,79.30
2023-04-06T07:57:59.120Z,79.30
2023-04-06T07:58:59.228Z,78.83
2023-04-06T07:59:59.166Z,79.21
2023-04-06T08:00:59.453Z,79.30
2023-04-06T08:01:59.229Z,79.30
2023-04-06T08:02:59.303Z,79.21
2023-04-06T08:03:59.749Z,79.21
2023-04-06T08:04:59.384Z,79.02
2023-04-06T08:05:59.344Z,79.02
2023-04-06T08:06:59.385Z,78.92
2023-04-06T08:07:59.401Z,78.92
2023-04-06T08:08:59.409Z,78.83
2023-04-06T08:09:59.449Z,79.11
2023-04-06T08:11:01.940Z,78.73
2023-04-06T08:11:59.578Z,79.02
2023-04-06T08:12:59.556Z,78.83
2023-04-06T08:13:59.552Z,78.63
2023-04-06T08:14:59.580Z,78.63
2023-04-06T08:15:59.666Z,78.63
2023-04-06T08:16:59.656Z,78.44
2023-04-06T08:18:00.049Z,78.83
2023-04-06T08:18:59.703Z,78.63
2023-04-06T08:19:59.736Z,78.73
2023-04-06T08:20:59.769Z,78.53
2023-04-06T08:21:59.782Z,78.92
2023-04-06T08:22:59.868Z,78.25
2023-04-06T08:23:59.857Z,78.92
2023-04-06T08:25:00.170Z,78.25
2023-04-06T08:25:59.907Z,78.73
2023-04-06T08:26:59.927Z,78.73
2023-04-06T08:27:59.967Z,78.92
2023-04-06T08:28:59.990Z,78.44
2023-04-06T08:30:00.041Z,78.63
2023-04-06T08:31:00.067Z,78.34
2023-04-06T08:32:00.131Z,78.09
2023-04-06T08:33:00.174Z,78.25
2023-04-06T08:34:00.146Z,78.34
2023-04-06T08:35:00.209Z,78.25
2023-04-06T08:36:00.255Z,78.19
2023-04-06T08:37:00.323Z,78.19
2023-04-06T08:38:00.548Z,78.28
2023-04-06T08:39:00.288Z,78.25
2023-04-06T08:40:00.311Z,78.06
2023-04-06T08:41:00.332Z,78.06
2023-04-06T08:42:00.375Z,77.96
2023-04-06T08:43:00.395Z,78.28
2023-04-06T08:45:00.756Z,78.19
2023-04-06T08:46:00.596Z,78.28
2023-04-06T08:47:00.522Z,78.09
2023-04-06T08:48:00.572Z,78.28
2023-04-06T08:49:00.629Z,78.48
2023-04-06T08:50:00.608Z,78.28
2023-04-06T08:51:00.923Z,78.09
2023-04-06T08:52:00.648Z,78.09
2023-04-06T08:53:00.676Z,78.09
2023-04-06T08:54:00.731Z,78.19
2023-04-06T08:55:00.804Z,77.90
2023-04-06T08:56:00.765Z,77.61
2023-04-06T08:57:00.801Z,77.61
2023-04-06T08:58:00.842Z,77.71
2023-04-06T08:59:00.873Z,77.51
2023-04-06T09:00:00.928Z,77.23
2023-04-06T09:02:00.972Z,76.94
2023-04-06T09:03:01.106Z,77.33
2023-04-06T09:04:01.110Z,77.26
2023-04-06T09:05:01.332Z,77.26
2023-04-06T09:06:01.069Z,77.08
2023-04-06T09:07:01.094Z,77.17
2023-04-06T09:08:01.147Z,77.17
2023-04-06T09:09:01.441Z,76.88
2023-04-06T09:10:01.181Z,76.88
2023-04-06T09:11:01.321Z,76.88
2023-04-06T09:12:01.248Z,77.08
2023-04-06T09:13:01.285Z,76.78
2023-04-06T09:14:01.291Z,76.78
2023-04-06T09:15:01.328Z,76.88
2023-04-06T09:16:01.782Z,76.59
2023-04-06T09:17:01.380Z,76.50
2023-04-06T09:18:01.441Z,76.59
2023-04-06T09:19:01.435Z,76.50
2023-04-06T09:20:01.614Z,76.59
2023-04-06T09:21:01.509Z,75.92
2023-04-06T09:22:01.552Z,76.21
2023-04-06T09:23:01.857Z,76.50
2023-04-06T09:24:01.684Z,76.31
2023-04-06T09:25:01.636Z,76.31
2023-04-06T09:27:01.708Z,76.06
2023-04-06T09:28:01.735Z,75.96
2023-04-06T09:29:01.752Z,76.11
2023-04-06T09:31:01.847Z,76.15
2023-04-06T09:32:01.849Z,76.15
2023-04-06T09:33:01.900Z,76.34
2023-04-06T09:34:01.884Z,76.06
2023-04-06T09:35:01.920Z,76.01
2023-04-06T09:36:01.996Z,75.57
2023-04-06T09:37:02.324Z,75.67
2023-04-06T09:38:02.011Z,75.86
2023-04-06T09:39:02.055Z,75.57
2023-04-06T09:40:02.070Z,75.76
2023-04-06T09:41:02.103Z,75.57
2023-04-06T09:42:02.132Z,75.38
2023-04-06T09:43:02.265Z,75.48
2023-04-06T09:44:02.215Z,75.48
2023-04-06T09:45:02.234Z,75.67
2023-04-06T09:46:02.256Z,75.19
2023-04-06T09:47:02.371Z,75.38
2023-04-06T09:48:02.478Z,75.19
2023-04-06T09:49:02.386Z,75.48
2023-04-06T09:50:02.667Z,75.57
2023-04-06T09:51:02.459Z,75.48
2023-04-06T09:52:02.426Z,75.57
2023-04-06T09:53:02.515Z,75.19
2023-04-06T09:54:02.488Z,75.28
2023-04-06T09:55:02.506Z,75.19
2023-04-06T09:56:02.946Z,74.90
2023-04-06T09:57:02.641Z,74.71
2023-04-06T09:58:02.758Z,75.19
2023-04-06T09:59:02.674Z,74.90
2023-04-06T10:00:02.694Z,75.09
2023-04-06T10:01:02.738Z,74.99
2023-04-06T10:02:03.076Z,74.99
2023-04-06T10:03:02.918Z,74.99
2023-04-06T10:04:02.990Z,75.19
2023-04-06T10:05:02.837Z,75.09
2023-04-06T10:06:02.847Z,74.51
2023-04-06T10:07:02.903Z,74.90
2023-04-06T10:08:03.246Z,74.80
2023-04-06T10:09:02.931Z,74.90
2023-04-06T10:10:02.984Z,74.93
2023-04-06T10:11:03.009Z,74.36
2023-04-06T10:12:03.018Z,75.03
2023-04-06T10:13:03.075Z,74.80
2023-04-06T10:14:03.095Z,74.55
2023-04-06T10:15:03.136Z,74.36
2023-04-06T10:16:03.191Z,74.45
2023-04-06T10:17:03.170Z,74.45
2023-04-06T10:18:03.300Z,74.55
2023-04-06T10:19:03.228Z,74.65
2023-04-06T10:20:03.269Z,74.45
2023-04-06T10:21:03.584Z,74.45
2023-04-06T10:22:03.331Z,74.45
2023-04-06T10:23:03.351Z,74.45
2023-04-06T10:24:03.424Z,74.45
2023-04-06T10:25:03.458Z,74.65
2023-04-06T10:26:03.453Z,74.65
2023-04-06T10:27:03.470Z,74.36
2023-04-06T10:28:03.829Z,74.36
2023-04-06T10:29:03.537Z,73.68
2023-04-06T10:30:03.575Z,74.55
2023-04-06T10:31:03.615Z,74.36
2023-04-06T10:32:03.656Z,74.07
2023-04-06T10:33:03.690Z,74.36
2023-04-06T10:34:03.748Z,74.26
2023-04-06T10:35:04.034Z,74.16
2023-04-06T10:36:03.796Z,73.97
2023-04-06T10:37:03.821Z,73.88
2023-04-06T10:38:03.822Z,73.97
2023-04-06T10:39:03.840Z,73.88
2023-04-06T10:40:03.925Z,73.88
2023-04-06T10:41:03.982Z,73.97
2023-04-06T10:42:04.234Z,74.16
2023-04-06T10:43:04.071Z,74.16
2023-04-06T10:44:04.018Z,74.07
2023-04-06T10:45:04.145Z,74.07
2023-04-06T10:46:04.110Z,74.07
2023-04-06T10:47:04.156Z,74.16
2023-04-06T10:48:04.235Z,74.07
2023-04-06T10:49:04.158Z,73.68
2023-04-06T10:50:04.188Z,74.07
2023-04-06T10:51:04.257Z,74.16
2023-04-06T10:52:04.251Z,74.07
2023-04-06T10:53:04.278Z,74.07
2023-04-06T10:54:04.307Z,74.07
2023-04-06T10:55:04.332Z,73.49
2023-04-06T10:56:04.363Z,73.58
2023-04-06T10:57:04.419Z,73.68
2023-04-06T10:58:04.432Z,73.58
2023-04-06T10:59:04.513Z,73.68
2023-04-06T11:00:04.520Z,74.07
2023-04-06T11:01:04.897Z,73.68
2023-04-06T11:02:04.568Z,73.30
2023-04-06T11:03:04.656Z,73.30
2023-04-06T11:05:04.632Z,73.20
2023-04-06T11:06:04.672Z,73.30
2023-04-06T11:08:05.041Z,73.20
2023-04-06T11:09:04.827Z,73.39
2023-04-06T11:10:15.517Z,73.43
2023-04-06T11:11:04.830Z,73.30
2023-04-06T11:12:04.859Z,73.39
2023-04-06T11:13:05.132Z,73.39
2023-04-06T11:14:05.226Z,73.39
2023-04-06T11:15:04.946Z,73.62
2023-04-06T11:16:04.975Z,73.53
2023-04-06T11:19:05.093Z,73.43
2023-04-06T11:20:05.097Z,73.24
2023-04-06T11:21:05.419Z,72.95
2023-04-06T11:22:05.169Z,73.30
2023-04-06T11:23:05.206Z,72.85
2023-04-06T11:24:05.227Z,72.85
2023-04-06T11:25:05.269Z,72.85
2023-04-06T11:26:05.285Z,72.85
2023-04-06T11:27:05.317Z,72.85
2023-04-06T11:28:05.645Z,72.95
2023-04-06T11:29:05.376Z,72.95
2023-04-06T11:30:05.416Z,72.95
2023-04-06T11:31:05.473Z,73.05
2023-04-06T11:32:05.478Z,73.05
2023-04-06T11:33:05.553Z,72.95
2023-04-06T11:34:05.524Z,72.95
2023-04-06T11:35:05.884Z,72.95
2023-04-06T11:36:05.633Z,72.95
2023-04-06T11:37:05.648Z,72.75
2023-04-06T11:38:05.708Z,72.95
2023-04-06T11:39:05.680Z,72.85
2023-04-06T11:40:05.729Z,72.85
2023-04-06T11:41:05.737Z,72.85
2023-04-06T11:42:09.085Z,72.75
2023-04-06T11:43:05.795Z,72.95
2023-04-06T11:44:06.118Z,73.05
2023-04-06T11:45:05.915Z,72.95
2023-04-06T11:46:06.041Z,72.75
2023-04-06T11:48:06.439Z,72.75
2023-04-06T11:49:06.037Z,73.24
2023-04-06T11:50:06.072Z,72.56
2023-04-06T11:51:06.148Z,72.95
2023-04-06T11:52:06.094Z,73.05
2023-04-06T11:53:06.188Z,72.95
2023-04-06T11:54:06.173Z,72.95
2023-04-06T11:55:06.187Z,73.43
2023-04-06T11:56:06.235Z,72.85
2023-04-06T11:57:06.234Z,72.95
2023-04-06T11:58:06.274Z,73.05
2023-04-06T11:59:06.358Z,72.85
2023-04-06T12:00:06.348Z,73.14
2023-04-06T12:01:06.719Z,72.95
2023-04-06T12:02:06.392Z,72.85
2023-04-06T12:03:06.568Z,73.05
2023-04-06T12:04:06.491Z,72.47
2023-04-06T12:05:06.523Z,72.56
2023-04-06T12:06:06.541Z,72.85
2023-04-06T12:07:06.876Z,72.85
2023-04-06T12:08:06.582Z,72.85
2023-04-06T12:09:06.625Z,72.85
2023-04-06T12:10:06.667Z,72.95
2023-04-06T12:11:06.684Z,72.47
2023-04-06T12:12:06.707Z,72.85
2023-04-06T12:13:06.743Z,72.66
2023-04-06T12:14:06.764Z,72.56
2023-04-06T12:15:06.793Z,72.66
2023-04-06T12:16:07.152Z,72.75
2023-04-06T12:17:06.867Z,72.56
2023-04-06T12:18:06.925Z,72.85
2023-04-06T12:19:06.980Z,72.95
2023-04-06T12:20:22.171Z,73.05
2023-04-06T12:21:06.988Z,72.85
2023-04-06T12:23:07.061Z,72.56
2023-04-06T12:24:07.075Z,72.66
2023-04-06T12:25:07.427Z,72.47
2023-04-06T12:26:07.169Z,72.47
2023-04-06T12:27:10.434Z,72.85
2023-04-06T12:28:07.200Z,72.66
2023-04-06T12:29:07.245Z,72.66
2023-04-06T12:30:07.290Z,72.66
2023-04-06T12:31:07.545Z,72.85
2023-04-06T12:32:07.643Z,72.75
2023-04-06T12:33:07.466Z,72.47
2023-04-06T12:34:07.423Z,72.66
2023-04-06T12:36:07.460Z,73.08
2023-04-06T12:37:07.507Z,72.69
2023-04-06T12:38:07.521Z,72.69
2023-04-06T12:40:07.887Z,72.69
2023-04-06T12:41:07.608Z,72.31
2023-04-06T12:42:07.632Z,72.50
2023-04-06T12:43:07.686Z,72.47
2023-04-06T12:44:07.706Z,72.85
2023-04-06T12:45:07.741Z,72.60
2023-04-06T12:46:07.783Z,72.47
2023-04-06T12:47:07.868Z,72.79
2023-04-06T12:48:07.891Z,72.56
2023-04-06T12:49:07.858Z,72.21
2023-04-06T12:50:08.004Z,72.18
2023-04-06T12:51:07.925Z,72.50
2023-04-06T12:52:07.961Z,72.56
2023-04-06T12:53:07.986Z,72.75
2023-04-06T12:54:08.023Z,72.69
2023-04-06T12:55:08.054Z,72.69
2023-04-06T12:56:08.103Z,72.60
2023-04-06T12:57:08.112Z,72.85
2023-04-06T12:58:08.141Z,72.37
2023-04-06T12:59:08.294Z,72.66
2023-04-06T13:00:09.501Z,72.50
2023-04-06T13:01:08.343Z,72.56
2023-04-06T13:02:08.285Z,72.56
2023-04-06T13:03:08.352Z,72.56
2023-04-06T13:04:08.322Z,72.37
2023-04-06T13:05:08.659Z,72.37
2023-04-06T13:06:08.392Z,72.66
2023-04-06T13:07:08.494Z,72.56
2023-04-06T13:08:08.461Z,72.75
2023-04-06T13:10:08.514Z,72.95
2023-04-06T13:11:08.869Z,72.56
2023-04-06T13:12:08.592Z,72.95
2023-04-06T13:13:08.610Z,73.05
2023-04-06T13:14:08.649Z,72.85
2023-04-06T13:15:08.709Z,72.95
2023-04-06T13:16:08.736Z,72.47
2023-04-06T13:17:09.040Z,72.47
2023-04-06T13:18:08.811Z,73.14
2023-04-06T13:19:08.804Z,72.75
2023-04-06T13:20:08.849Z,72.47
2023-04-06T13:21:08.877Z,73.05
2023-04-06T13:22:08.893Z,72.85
2023-04-06T13:23:08.921Z,72.56
2023-04-06T13:24:09.262Z,72.56
2023-04-06T13:25:08.984Z,72.47
2023-04-06T13:26:09.354Z,72.47
2023-04-06T13:27:09.156Z,72.66
2023-04-06T13:28:09.095Z,72.47
2023-04-06T13:29:09.117Z,72.56
2023-04-06T13:30:09.249Z,72.56
2023-04-06T13:31:09.482Z,72.95
2023-04-06T13:32:09.270Z,72.85
2023-04-06T13:33:09.358Z,72.27
2023-04-06T13:34:09.273Z,72.66
2023-04-06T13:35:09.303Z,72.56
2023-04-06T13:36:09.362Z,72.75